Time;durP1;ratioP1;P1;durP2;ratioP2;P2;SDS_P1;SDS_P2;PMS_P1;PMS_P2;Temp;Humidity;BMP_temperature;BMP_pressure;BME280_temperature;BME280_humidity;BME280_pressure;Samples;Min_cycle;Max_cycle;Signal;HPM_P1;HPM_P2
2021/07/28 00:01:59;;;;;;;8.27;8.00;;;24.70;95.50;;;;;;3589410;40;20458;-61
2021/07/28 00:04:27;;;;;;;8.60;8.30;;;24.70;95.50;;;;;;3589975;40;20450;-61
2021/07/28 00:06:54;;;;;;;8.70;8.40;;;24.70;95.60;;;;;;3589690;40;20494;-61
2021/07/28 00:09:21;;;;;;;8.37;8.10;;;24.70;95.50;;;;;;3589135;40;20457;-61
2021/07/28 00:11:49;;;;;;;8.50;8.20;;;24.70;95.60;;;;;;3589223;40;20518;-61
2021/07/28 00:14:16;;;;;;;8.27;7.97;;;24.70;95.50;;;;;;3590296;40;20491;-60
2021/07/28 00:16:44;;;;;;;8.40;8.10;;;24.70;95.50;;;;;;3589666;40;20760;-61
2021/07/28 00:19:18;;;;;;;8.83;8.53;;;24.70;95.50;;;;;;3579969;40;20573;-61
2021/07/28 00:24:34;;;;;;;8.50;8.20;;;24.70;95.50;;;;;;3589108;40;20474;-61
2021/07/28 00:27:02;;;;;;;8.90;8.60;;;24.70;95.50;;;;;;3589211;40;20462;-61
2021/07/28 00:29:30;;;;;;;8.90;8.60;;;24.70;95.50;;;;;;3590441;40;20703;-61
2021/07/28 00:31:57;;;;;;;8.97;8.67;;;24.70;95.50;;;;;;3589587;40;20485;-60
2021/07/28 00:34:26;;;;;;;8.07;7.80;;;24.70;95.50;;;;;;3589582;40;20472;-61
2021/07/28 00:36:58;;;;;;;8.20;7.90;;;24.70;95.50;;;;;;3589483;40;20939;-61
2021/07/28 00:39:26;;;;;;;8.80;8.50;;;24.70;95.50;;;;;;3589996;40;20474;-61
2021/07/28 00:41:53;;;;;;;8.40;8.10;;;24.70;95.50;;;;;;3589384;40;20590;-61
2021/07/28 00:44:20;;;;;;;8.73;8.43;;;24.70;95.50;;;;;;3589451;40;20506;-61
2021/07/28 00:46:47;;;;;;;8.27;7.97;;;24.70;95.50;;;;;;3589919;40;20462;-61
2021/07/28 00:49:15;;;;;;;8.60;8.30;;;24.70;95.60;;;;;;3589222;40;20481;-61
2021/07/28 00:51:43;;;;;;;7.97;7.77;;;24.70;95.60;;;;;;3589277;40;20556;-61
2021/07/28 00:54:11;;;;;;;7.80;7.60;;;24.70;95.50;;;;;;3589694;40;20617;-61
2021/07/28 00:56:38;;;;;;;8.23;7.93;;;24.70;95.50;;;;;;3589518;40;20462;-61
2021/07/28 00:59:09;;;;;;;8.70;8.40;;;24.70;95.50;;;;;;3589560;40;20466;-62
2021/07/28 01:01:37;;;;;;;8.30;8.10;;;24.70;95.50;;;;;;3571707;40;20485;-61
2021/07/28 01:04:05;;;;;;;7.43;7.23;;;24.70;95.50;;;;;;3590318;40;20559;-61
2021/07/28 01:06:32;;;;;;;8.50;8.20;;;24.70;95.50;;;;;;3590080;40;20482;-61
2021/07/28 01:09:01;;;;;;;8.20;7.90;;;24.70;95.50;;;;;;3589730;40;20501;-61
2021/07/28 01:11:28;;;;;;;8.43;8.13;;;24.70;95.50;;;;;;3588951;40;20482;-61
2021/07/28 01:13:56;;;;;;;8.30;8.00;;;24.70;95.50;;;;;;3590366;40;20454;-61
2021/07/28 01:16:25;;;;;;;7.97;7.67;;;24.70;95.50;;;;;;3589640;40;20462;-60
2021/07/28 01:18:53;;;;;;;8.60;8.30;;;24.70;95.50;;;;;;3589523;40;20536;-61
2021/07/28 01:21:21;;;;;;;8.60;8.30;;;24.70;95.50;;;;;;3580529;40;20481;-61
2021/07/28 01:23:51;;;;;;;8.23;7.93;;;24.70;95.50;;;;;;3590228;40;20474;-61
2021/07/28 01:26:19;;;;;;;8.07;7.87;;;24.70;95.50;;;;;;3589137;40;20474;-62
2021/07/28 01:28:47;;;;;;;8.63;8.33;;;24.70;95.50;;;;;;3589684;40;20481;-61
2021/07/28 01:31:18;;;;;;;8.40;8.10;;;24.70;95.50;;;;;;3589767;40;20489;-61
2021/07/28 01:33:46;;;;;;;8.17;7.87;;;24.70;95.50;;;;;;3589118;40;20529;-61
2021/07/28 01:36:15;;;;;;;8.33;8.10;;;24.70;95.50;;;;;;3589120;40;20761;-61
2021/07/28 01:38:43;;;;;;;8.77;8.47;;;24.70;95.50;;;;;;3589072;40;20478;-61
2021/07/28 01:41:12;;;;;;;8.53;8.23;;;24.70;95.50;;;;;;3588953;40;20466;-61
2021/07/28 01:43:40;;;;;;;8.27;7.97;;;24.70;95.50;;;;;;3589121;40;20462;-61
2021/07/28 01:46:07;;;;;;;8.50;8.20;;;24.70;95.50;;;;;;3580369;40;20482;-61
2021/07/28 01:48:36;;;;;;;8.03;7.83;;;24.70;95.50;;;;;;3589253;40;20454;-61
2021/07/28 01:51:03;;;;;;;8.90;8.60;;;24.70;95.60;;;;;;3589361;40;20518;-61
2021/07/28 01:53:31;;;;;;;8.50;8.20;;;24.70;95.80;;;;;;3589129;40;20483;-60
2021/07/28 01:55:59;;;;;;;8.13;7.93;;;24.70;95.50;;;;;;3588343;40;20470;-61
2021/07/28 01:58:28;;;;;;;8.20;7.90;;;24.70;95.50;;;;;;3589518;40;20458;-61
2021/07/28 02:00:55;;;;;;;8.40;8.10;;;24.70;95.50;;;;;;3589085;40;20531;-61
2021/07/28 02:03:23;;;;;;;8.60;8.30;;;24.70;95.50;;;;;;3588295;40;20722;-61
2021/07/28 02:05:50;;;;;;;7.97;7.77;;;24.70;95.50;;;;;;3589485;40;20458;-61
2021/07/28 02:08:19;;;;;;;8.67;8.37;;;24.70;95.50;;;;;;3588299;40;20484;-61
2021/07/28 02:10:48;;;;;;;7.80;7.60;;;24.70;95.50;;;;;;3579817;40;20466;-61
2021/07/28 02:13:16;;;;;;;8.30;8.00;;;24.70;95.50;;;;;;3588674;40;20471;-61
2021/07/28 02:15:46;;;;;;;7.80;7.60;;;24.70;95.50;;;;;;3589108;40;20446;-61
2021/07/28 02:18:14;;;;;;;8.07;7.87;;;24.70;95.50;;;;;;3588395;40;20578;-61
2021/07/28 02:20:41;;;;;;;8.27;7.97;;;24.70;95.50;;;;;;3587898;40;21008;-61
2021/07/28 02:23:09;;;;;;;8.20;7.97;;;24.70;95.50;;;;;;3587808;40;20454;-61
2021/07/28 02:25:37;;;;;;;8.33;8.03;;;24.70;95.50;;;;;;3588416;40;20805;-61
2021/07/28 02:28:05;;;;;;;8.63;8.33;;;24.70;95.50;;;;;;3588982;40;20678;-61
2021/07/28 02:30:32;;;;;;;8.80;8.50;;;24.70;95.50;;;;;;3588902;40;20458;-62
2021/07/28 02:33:00;;;;;;;8.43;8.13;;;24.70;95.50;;;;;;3579500;40;20458;-61
2021/07/28 02:35:28;;;;;;;8.40;8.10;;;24.70;95.50;;;;;;3588692;40;20746;-61
2021/07/28 02:37:55;;;;;;;8.43;8.13;;;24.70;95.50;;;;;;3588880;40;20809;-62
2021/07/28 02:40:22;;;;;;;8.47;8.17;;;24.70;95.50;;;;;;3588933;40;20683;-61
2021/07/28 02:42:50;;;;;;;8.37;8.07;;;24.70;95.50;;;;;;3588666;40;20494;-60
2021/07/28 02:45:18;;;;;;;8.27;8.07;;;24.70;95.50;;;;;;3588472;40;20451;-61
2021/07/28 02:47:46;;;;;;;8.07;7.87;;;24.70;95.50;;;;;;3589126;40;20459;-60
2021/07/28 02:50:15;;;;;;;8.93;8.63;;;24.70;95.50;;;;;;3588212;40;20454;-61
2021/07/28 02:52:42;;;;;;;8.70;8.40;;;24.70;95.50;;;;;;3588560;40;20739;-61
2021/07/28 02:55:11;;;;;;;8.67;8.37;;;24.70;95.50;;;;;;3589497;40;20481;-61
2021/07/28 02:57:39;;;;;;;9.77;9.37;;;24.70;95.50;;;;;;3578825;40;20462;-61
2021/07/28 03:00:08;;;;;;;8.77;8.47;;;24.70;95.50;;;;;;3587835;40;20450;-61
2021/07/28 03:02:36;;;;;;;8.30;8.10;;;24.70;95.60;;;;;;3588727;40;20450;-61
2021/07/28 03:05:06;;;;;;;9.20;8.90;;;24.70;95.50;;;;;;3589340;40;20457;-61
2021/07/28 03:07:34;;;;;;;8.43;8.23;;;24.70;95.80;;;;;;3589043;40;20461;-61
2021/07/28 03:10:02;;;;;;;8.50;8.20;;;24.70;95.50;;;;;;3588888;40;20486;-61
2021/07/28 03:12:30;;;;;;;8.10;7.90;;;24.70;95.50;;;;;;3588957;40;20811;-60
2021/07/28 03:14:58;;;;;;;8.10;7.90;;;24.70;95.50;;;;;;3579140;40;20547;-61
2021/07/28 03:17:25;;;;;;;8.10;7.90;;;24.70;95.50;;;;;;3587821;40;20481;-61
2021/07/28 03:19:52;;;;;;;8.90;8.60;;;24.70;95.50;;;;;;3588000;40;20450;-61
2021/07/28 03:22:19;;;;;;;8.67;8.40;;;24.70;95.50;;;;;;3587858;40;20449;-61
2021/07/28 03:24:48;;;;;;;8.70;8.40;;;24.70;95.50;;;;;;3589083;40;20476;-61
2021/07/28 03:27:15;;;;;;;8.87;8.57;;;24.70;95.50;;;;;;3587929;40;20450;-61
2021/07/28 03:29:42;;;;;;;8.80;8.50;;;24.70;95.50;;;;;;3587261;40;20876;-61
2021/07/28 03:32:10;;;;;;;9.07;8.77;;;24.70;95.50;;;;;;3586410;40;20631;-61
2021/07/28 03:34:38;;;;;;;8.70;8.40;;;24.70;95.50;;;;;;3577889;40;20489;-61
2021/07/28 03:37:05;;;;;;;9.23;8.93;;;24.60;95.50;;;;;;3587466;40;20632;-61
2021/07/28 03:39:33;;;;;;;9.07;8.77;;;24.70;95.50;;;;;;3588597;40;20528;-61
2021/07/28 03:42:01;;;;;;;9.50;9.20;;;24.70;95.50;;;;;;3587569;40;20480;-60
2021/07/28 03:44:29;;;;;;;9.67;9.37;;;24.70;95.50;;;;;;3586870;40;20605;-61
2021/07/28 03:46:56;;;;;;;9.30;9.00;;;24.70;95.50;;;;;;3587348;40;20468;-61
2021/07/28 03:49:23;;;;;;;9.60;9.30;;;24.70;95.50;;;;;;3586803;40;20525;-61
2021/07/28 03:51:50;;;;;;;10.13;9.83;;;24.70;95.50;;;;;;3585721;40;20566;-61
2021/07/28 03:54:17;;;;;;;9.60;9.30;;;24.70;95.50;;;;;;3587117;40;20470;-61
2021/07/28 03:56:44;;;;;;;9.20;8.90;;;24.70;95.50;;;;;;3577510;40;20632;-61
2021/07/28 03:59:13;;;;;;;9.50;9.20;;;24.70;95.50;;;;;;3586289;40;20458;-61
2021/07/28 04:01:40;;;;;;;9.03;8.73;;;24.60;95.50;;;;;;3586591;40;20530;-61
2021/07/28 04:04:08;;;;;;;9.30;9.00;;;24.70;95.50;;;;;;3586588;40;20455;-61
2021/07/28 04:06:35;;;;;;;9.30;9.00;;;24.70;95.50;;;;;;3587843;40;20767;-61
2021/07/28 04:09:03;;;;;;;9.60;9.30;;;24.60;95.50;;;;;;3587517;40;20474;-61
2021/07/28 04:11:30;;;;;;;9.87;9.57;;;24.70;95.50;;;;;;3587357;40;20466;-61
2021/07/28 04:13:57;;;;;;;10.00;9.70;;;24.70;95.50;;;;;;3587692;40;20451;-61
2021/07/28 04:16:25;;;;;;;9.73;9.43;;;24.70;95.50;;;;;;3587972;40;20454;-61
2021/07/28 04:18:53;;;;;;;10.40;10.10;;;24.70;95.50;;;;;;3585916;40;20473;-61
2021/07/28 04:21:20;;;;;;;10.47;10.17;;;24.70;95.50;;;;;;3585851;40;20481;-61
2021/07/28 04:23:47;;;;;;;10.40;10.10;;;24.70;95.80;;;;;;3584930;40;20674;-61
2021/07/28 04:26:14;;;;;;;9.83;9.53;;;24.70;95.50;;;;;;3584499;40;20514;-61
2021/07/28 04:28:41;;;;;;;10.20;9.90;;;24.70;95.50;;;;;;3584102;40;20465;-60
2021/07/28 04:31:09;;;;;;;10.40;10.10;;;24.70;95.50;;;;;;3584984;40;20461;-61
2021/07/28 04:33:37;;;;;;;10.40;10.00;;;24.70;95.50;;;;;;3586644;40;20545;-60
2021/07/28 04:36:05;;;;;;;10.10;9.80;;;24.70;95.50;;;;;;3586042;40;20454;-61
2021/07/28 04:38:32;;;;;;;10.27;9.97;;;24.70;95.50;;;;;;3584721;40;20707;-61
2021/07/28 04:40:59;;;;;;;10.13;9.83;;;24.70;95.50;;;;;;3585874;40;20767;-61
2021/07/28 04:43:26;;;;;;;10.10;9.80;;;24.70;95.50;;;;;;3585368;40;20487;-61
2021/07/28 04:46:00;;;;;;;10.30;10.00;;;24.60;95.40;;;;;;3584291;40;20540;-60
2021/07/28 04:48:27;;;;;;;9.90;9.60;;;24.70;95.50;;;;;;3584686;40;20749;-61
2021/07/28 04:50:57;;;;;;;9.53;9.23;;;24.70;95.50;;;;;;3585834;40;20458;-61
2021/07/28 04:53:28;;;;;;;10.23;9.93;;;24.70;95.50;;;;;;3584775;40;20473;-61
2021/07/28 04:55:56;;;;;;;10.17;9.87;;;24.70;95.50;;;;;;3584814;40;20454;-61
2021/07/28 04:58:23;;;;;;;10.57;10.20;;;24.70;95.50;;;;;;3585684;40;20473;-61
2021/07/28 05:00:51;;;;;;;10.00;9.70;;;24.70;95.50;;;;;;3585788;40;20454;-61
2021/07/28 05:03:19;;;;;;;10.10;9.80;;;24.70;95.50;;;;;;3583688;40;20528;-61
2021/07/28 05:05:46;;;;;;;9.73;9.43;;;24.60;95.50;;;;;;3582126;40;20552;-61
2021/07/28 05:08:14;;;;;;;10.33;10.03;;;24.70;95.50;;;;;;3583382;40;20502;-61
2021/07/28 05:10:42;;;;;;;9.67;9.37;;;24.70;95.50;;;;;;3581959;40;20458;-61
2021/07/28 05:13:09;;;;;;;10.20;9.90;;;24.70;95.50;;;;;;3581621;40;20485;-61
2021/07/28 05:15:36;;;;;;;9.90;9.60;;;24.70;95.50;;;;;;3573641;40;20530;-61
2021/07/28 05:18:04;;;;;;;10.10;9.80;;;24.70;95.50;;;;;;3582982;40;20465;-61
2021/07/28 05:20:33;;;;;;;9.60;9.30;;;24.70;95.50;;;;;;3573661;40;20493;-61
2021/07/28 05:23:00;;;;;;;9.90;9.60;;;24.70;95.50;;;;;;3581271;40;20640;-61
2021/07/28 05:25:29;;;;;;;9.83;9.53;;;24.70;95.50;;;;;;3572950;40;20526;-61
2021/07/28 05:27:57;;;;;;;10.23;9.93;;;24.70;95.50;;;;;;3580588;40;20477;-61
2021/07/28 05:30:27;;;;;;;10.17;9.87;;;24.70;95.50;;;;;;3580558;40;20481;-61
2021/07/28 05:32:54;;;;;;;9.83;9.53;;;24.70;95.50;;;;;;3580941;40;20493;-61
2021/07/28 05:35:21;;;;;;;10.00;9.70;;;24.70;95.50;;;;;;3572056;40;20462;-61
2021/07/28 05:37:48;;;;;;;10.83;10.43;;;24.70;95.50;;;;;;3581152;40;20465;-61
2021/07/28 05:40:16;;;;;;;10.40;10.10;;;24.70;95.50;;;;;;3579904;40;20465;-61
2021/07/28 05:42:44;;;;;;;9.33;9.03;;;24.60;95.40;;;;;;3579174;40;20458;-61
2021/07/28 05:45:12;;;;;;;9.30;9.00;;;24.60;95.40;;;;;;3578610;40;20477;-61
2021/07/28 05:47:39;;;;;;;9.80;9.50;;;24.70;95.50;;;;;;3580132;40;20557;-61
2021/07/28 05:50:07;;;;;;;9.90;9.60;;;24.70;95.50;;;;;;3578501;40;20838;-61
2021/07/28 05:52:34;;;;;;;9.67;9.37;;;24.60;95.40;;;;;;3567499;40;20501;-61
2021/07/28 05:55:01;;;;;;;10.23;9.93;;;24.60;95.50;;;;;;3578110;40;20559;-61
2021/07/28 05:57:28;;;;;;;10.10;9.80;;;24.70;95.50;;;;;;3575992;40;20917;-61
2021/07/28 05:59:57;;;;;;;9.77;9.47;;;24.60;95.40;;;;;;3576765;40;20479;-61
2021/07/28 06:02:24;;;;;;;10.23;9.93;;;24.70;95.50;;;;;;3577148;40;20559;-61
2021/07/28 06:04:51;;;;;;;9.77;9.47;;;24.70;95.50;;;;;;3575206;40;21030;-61
2021/07/28 06:07:18;;;;;;;10.33;10.03;;;24.60;95.40;;;;;;3576221;40;20485;-61
2021/07/28 06:09:45;;;;;;;10.40;10.10;;;24.70;95.50;;;;;;3574054;40;20607;-61
2021/07/28 06:12:16;;;;;;;10.47;10.17;;;24.70;95.50;;;;;;3573847;40;20937;-60
2021/07/28 06:14:44;;;;;;;10.20;9.90;;;24.60;95.40;;;;;;3565544;40;20927;-61
2021/07/28 06:17:13;;;;;;;10.33;10.00;;;24.70;95.50;;;;;;3573977;40;20723;-61
2021/07/28 06:19:42;;;;;;;9.93;9.63;;;24.60;95.40;;;;;;3574687;40;20570;-61
2021/07/28 06:22:10;;;;;;;10.40;10.10;;;24.60;95.40;;;;;;3574988;40;20467;-61
2021/07/28 06:24:37;;;;;;;10.30;10.00;;;24.60;95.40;;;;;;3565698;40;20562;-61
2021/07/28 06:27:04;;;;;;;10.37;9.97;;;24.70;95.80;;;;;;3575981;40;20537;-61
2021/07/28 06:29:32;;;;;;;10.80;10.50;;;24.60;95.50;;;;;;3564658;40;20657;-61
2021/07/28 06:31:59;;;;;;;10.67;10.37;;;24.70;95.50;;;;;;3574535;40;20800;-61
2021/07/28 06:34:27;;;;;;;10.30;10.00;;;24.70;95.50;;;;;;3561951;40;20852;-60
2021/07/28 06:36:54;;;;;;;11.40;11.00;;;24.60;95.50;;;;;;3577149;40;20458;-61
2021/07/28 06:39:22;;;;;;;11.10;10.70;;;24.70;95.50;;;;;;3577164;40;20462;-61
2021/07/28 06:41:49;;;;;;;10.40;10.10;;;24.70;95.50;;;;;;3579016;40;20450;-61
2021/07/28 06:44:16;;;;;;;9.57;9.27;;;24.70;95.50;;;;;;3576160;40;20450;-61
2021/07/28 06:46:43;;;;;;;9.40;9.10;;;24.70;95.50;;;;;;3577073;40;21077;-61
2021/07/28 06:49:11;;;;;;;10.03;9.73;;;24.60;95.50;;;;;;3577864;40;20903;-61
2021/07/28 06:51:39;;;;;;;9.70;9.40;;;24.70;95.50;;;;;;3578018;40;20474;-61
2021/07/28 06:54:07;;;;;;;9.90;9.60;;;24.60;95.50;;;;;;3577333;40;20907;-61
2021/07/28 06:56:34;;;;;;;10.20;9.90;;;24.70;95.50;;;;;;3578554;40;21381;-61
2021/07/28 06:59:01;;;;;;;9.83;9.53;;;24.70;95.50;;;;;;3577742;40;20624;-61
2021/07/28 07:01:28;;;;;;;9.60;9.30;;;24.70;95.50;;;;;;3576918;40;20458;-60
2021/07/28 07:03:55;;;;;;;9.60;9.30;;;24.70;95.50;;;;;;3575882;40;20471;-61
2021/07/28 07:06:23;;;;;;;9.30;9.00;;;24.70;95.50;;;;;;3576785;40;20490;-61
2021/07/28 07:08:51;;;;;;;9.30;9.00;;;24.70;95.50;;;;;;3576425;40;20470;-61
2021/07/28 07:11:18;;;;;;;9.20;8.90;;;24.70;95.50;;;;;;3577049;40;20478;-62
2021/07/28 07:13:45;;;;;;;9.07;8.80;;;24.70;95.50;;;;;;3577495;40;20447;-61
2021/07/28 07:16:13;;;;;;;8.97;8.67;;;24.70;95.50;;;;;;3574443;40;20955;-61
2021/07/28 07:18:40;;;;;;;8.90;8.60;;;24.70;95.50;;;;;;3573409;40;21000;-61
2021/07/28 07:21:07;;;;;;;8.90;8.60;;;24.70;95.50;;;;;;3572757;40;20715;-61
2021/07/28 07:23:36;;;;;;;10.20;9.90;;;24.70;95.50;;;;;;3572214;40;20482;-61
2021/07/28 07:26:05;;;;;;;10.70;10.30;;;24.70;95.50;;;;;;3577955;40;20813;-61
2021/07/28 07:28:33;;;;;;;10.70;10.40;;;24.70;95.60;;;;;;3581045;40;20575;-61
2021/07/28 07:31:01;;;;;;;10.53;10.23;;;24.70;95.50;;;;;;3577658;40;21089;-61
2021/07/28 07:33:41;;;;;;;10.00;9.70;;;24.60;95.50;;;;;;3578669;40;20476;-61
2021/07/28 07:36:10;;;;;;;10.80;10.50;;;24.70;95.50;;;;;;3587208;40;20452;-61
2021/07/28 07:38:38;;;;;;;11.10;10.80;;;24.70;95.50;;;;;;3588384;40;20473;-61
2021/07/28 07:41:06;;;;;;;10.83;10.53;;;24.60;95.50;;;;;;3590115;40;20472;-61
2021/07/28 07:43:34;;;;;;;10.50;10.20;;;24.60;95.50;;;;;;3586424;40;20468;-61
2021/07/28 07:46:01;;;;;;;10.67;10.30;;;24.70;95.50;;;;;;3586024;40;20465;-61
2021/07/28 07:48:31;;;;;;;10.47;10.17;;;24.70;95.50;;;;;;3584177;40;20471;-61
2021/07/28 07:50:58;;;;;;;10.33;10.03;;;24.70;95.50;;;;;;3583361;40;20461;-61
2021/07/28 07:53:26;;;;;;;10.50;10.20;;;24.60;95.50;;;;;;3582428;40;20473;-61
2021/07/28 07:55:56;;;;;;;10.60;10.27;;;24.70;95.50;;;;;;3582139;40;20476;-61
2021/07/28 07:58:25;;;;;;;10.10;9.80;;;24.70;95.50;;;;;;3571974;40;20800;-61
2021/07/28 08:00:52;;;;;;;9.90;9.60;;;24.60;95.80;;;;;;3580077;40;20479;-61
2021/07/28 08:03:20;;;;;;;10.27;9.97;;;24.70;95.50;;;;;;3579781;40;20465;-61
2021/07/28 08:05:47;;;;;;;11.17;10.77;;;24.70;95.50;;;;;;3582052;39;20598;-61
2021/07/28 08:08:14;;;;;;;10.40;10.10;;;24.60;95.40;;;;;;3584149;40;20720;-61
2021/07/28 08:10:41;;;;;;;10.23;9.93;;;24.70;95.50;;;;;;3583915;40;20494;-61
2021/07/28 08:13:09;;;;;;;10.57;10.27;;;24.60;95.50;;;;;;3582369;40;20746;-61
2021/07/28 08:15:37;;;;;;;10.93;10.63;;;24.70;95.50;;;;;;3583150;40;20864;-61
2021/07/28 08:18:06;;;;;;;10.50;10.20;;;24.60;95.40;;;;;;3582055;40;20479;-61
2021/07/28 08:20:33;;;;;;;10.00;9.70;;;24.60;95.50;;;;;;3584834;40;20790;-61
2021/07/28 08:23:00;;;;;;;10.57;10.27;;;24.60;95.50;;;;;;3581964;40;20465;-61
2021/07/28 08:25:28;;;;;;;11.03;10.73;;;24.70;95.50;;;;;;3582463;40;20520;-61
2021/07/28 08:27:55;;;;;;;10.60;10.30;;;24.70;95.50;;;;;;3581440;40;20676;-61
2021/07/28 08:30:22;;;;;;;10.37;10.07;;;24.60;95.40;;;;;;3582511;40;20457;-60
2021/07/28 08:32:51;;;;;;;10.80;10.40;;;24.60;95.40;;;;;;3583951;40;20472;-61
2021/07/28 08:35:18;;;;;;;10.40;10.10;;;24.70;95.50;;;;;;3581165;40;20976;-60
2021/07/28 08:37:45;;;;;;;10.70;10.40;;;24.70;95.50;;;;;;3583471;40;20461;-61
2021/07/28 08:40:15;;;;;;;10.50;10.20;;;24.70;95.50;;;;;;3583097;40;20519;-60
2021/07/28 08:42:46;;;;;;;10.30;10.00;;;24.70;95.50;;;;;;3584144;40;20874;-61
2021/07/28 08:45:15;;;;;;;10.10;9.80;;;24.60;95.50;;;;;;3583673;40;20476;-61
2021/07/28 08:47:43;;;;;;;10.60;10.30;;;24.70;95.50;;;;;;3581480;40;21069;-61
2021/07/28 08:50:14;;;;;;;10.37;10.07;;;24.70;95.50;;;;;;3580707;40;20473;-61
2021/07/28 08:52:41;;;;;;;10.40;10.10;;;24.70;95.50;;;;;;3580149;40;20462;-61
2021/07/28 08:55:10;;;;;;;10.07;9.77;;;24.70;95.50;;;;;;3583133;40;20453;-61
2021/07/28 08:57:37;;;;;;;10.20;9.90;;;24.60;95.40;;;;;;3583752;40;20461;-61
2021/07/28 09:00:09;;;;;;;10.17;9.80;;;24.70;95.50;;;;;;3582991;40;20472;-61
2021/07/28 09:02:36;;;;;;;10.70;10.40;;;24.60;95.40;;;;;;3583021;40;20473;-61
2021/07/28 09:05:04;;;;;;;11.23;10.93;;;24.70;95.50;;;;;;3580678;40;20442;-58
2021/07/28 09:07:38;;;;;;;10.47;10.17;;;24.70;95.50;;;;;;3573944;40;20506;-59
2021/07/28 09:10:07;;;;;;;11.00;10.70;;;24.60;95.50;;;;;;3575478;40;20472;-59
2021/07/28 09:12:35;;;;;;;11.67;11.27;;;24.70;95.50;;;;;;3575024;40;20634;-59
2021/07/28 09:15:05;;;;;;;11.63;11.23;;;24.70;95.50;;;;;;3565683;40;20782;-56
2021/07/28 09:17:35;;;;;;;11.37;10.97;;;24.70;95.50;;;;;;3574389;39;20460;-59
2021/07/28 09:20:03;;;;;;;11.20;10.90;;;24.70;95.50;;;;;;3576380;40;20651;-59
2021/07/28 09:22:36;;;;;;;11.07;10.73;;;24.70;95.50;;;;;;3575926;40;20461;-58
2021/07/28 09:25:10;;;;;;;11.20;10.90;;;24.70;95.50;;;;;;3571188;40;20478;-58
2021/07/28 09:27:43;;;;;;;10.30;10.00;;;24.70;95.50;;;;;;3560396;40;20523;-58
2021/07/28 09:30:12;;;;;;;10.83;10.50;;;24.60;95.40;;;;;;3559497;40;20455;-59
2021/07/28 09:32:59;;;;;;;10.97;10.57;;;24.70;95.50;;;;;;3557499;40;20479;-58
2021/07/28 09:36:08;;;;;;;10.23;9.83;;;24.70;95.50;;;;;;3555394;40;20656;-58
2021/07/28 09:38:42;;;;;;;9.40;9.10;;;24.70;95.50;;;;;;3558486;40;20470;-59
2021/07/28 09:41:27;;;;;;;9.70;9.40;;;24.70;95.50;;;;;;3559029;40;20559;-59
2021/07/28 09:43:57;;;;;;;10.30;10.00;;;24.70;95.50;;;;;;3567713;40;20567;-59
2021/07/28 09:46:32;;;;;;;10.10;9.80;;;24.70;95.50;;;;;;3569798;40;20458;-59
2021/07/28 09:49:02;;;;;;;10.53;10.23;;;24.70;95.50;;;;;;3569737;40;20446;-58
2021/07/28 09:51:33;;;;;;;10.33;10.03;;;24.70;95.50;;;;;;3570190;40;20450;-59
2021/07/28 09:54:03;;;;;;;9.80;9.50;;;24.70;95.50;;;;;;3564948;40;20479;-59
2021/07/28 09:56:45;;;;;;;9.90;9.60;;;24.70;95.50;;;;;;3558294;40;20954;-59
2021/07/28 09:59:12;;;;;;;9.60;9.30;;;24.70;95.50;;;;;;3559890;40;20459;-59
2021/07/28 10:01:41;;;;;;;9.47;9.17;;;24.70;95.50;;;;;;3550494;40;20457;-58
2021/07/28 10:04:11;;;;;;;9.43;9.13;;;24.60;95.50;;;;;;3560548;40;20447;-60
2021/07/28 10:06:40;;;;;;;9.80;9.50;;;24.70;95.50;;;;;;3559154;40;20810;-59
2021/07/28 10:09:10;;;;;;;9.33;9.03;;;24.70;95.50;;;;;;3557909;40;20705;-59
2021/07/28 10:11:40;;;;;;;9.97;9.67;;;24.60;95.40;;;;;;3558841;40;20446;-59
2021/07/28 10:14:09;;;;;;;9.67;9.37;;;24.70;95.50;;;;;;3559616;40;20471;-57
2021/07/28 10:16:36;;;;;;;9.67;9.37;;;24.70;95.50;;;;;;3560507;40;20459;-58
2021/07/28 10:19:05;;;;;;;9.53;9.23;;;24.70;95.50;;;;;;3568284;40;20505;-59
2021/07/28 10:21:34;;;;;;;9.80;9.50;;;24.70;95.50;;;;;;3570038;40;20498;-58
2021/07/28 10:24:03;;;;;;;9.70;9.40;;;24.70;95.50;;;;;;3568058;40;21312;-58
2021/07/28 10:26:36;;;;;;;10.07;9.77;;;24.70;95.50;;;;;;3575750;40;21319;-58
2021/07/28 10:29:03;;;;;;;10.00;9.70;;;24.70;95.50;;;;;;3578370;39;20445;-60
2021/07/28 10:31:45;;;;;;;10.03;9.73;;;24.70;95.50;;;;;;3579494;40;20510;-59
2021/07/28 10:34:23;;;;;;;10.07;9.77;;;24.70;95.50;;;;;;3578602;40;20465;-58
2021/07/28 10:36:52;;;;;;;10.10;9.80;;;24.70;95.50;;;;;;3578003;40;20686;-58
2021/07/28 10:39:40;;;;;;;10.50;10.20;;;24.70;95.50;;;;;;3575255;40;20516;-58
2021/07/28 10:42:10;;;;;;;11.00;10.60;;;24.70;95.50;;;;;;3557742;40;20577;-59
2021/07/28 10:45:04;;;;;;;10.60;10.30;;;24.70;95.50;;;;;;3548147;40;20463;-59
2021/07/28 10:47:35;;;;;;;11.17;10.77;;;24.70;95.50;;;;;;3565066;40;21086;-59
2021/07/28 10:50:03;;;;;;;10.43;10.13;;;24.70;95.50;;;;;;3570334;40;21333;-58
2021/07/28 10:52:48;;;;;;;10.80;10.50;;;24.70;95.50;;;;;;3571016;40;20909;-59
2021/07/28 10:55:23;;;;;;;11.43;11.03;;;24.70;95.50;;;;;;3570397;40;20568;-60
2021/07/28 10:58:23;;;;;;;11.60;11.20;;;24.70;95.50;;;;;;3568172;40;20963;-59
2021/07/28 11:00:55;;;;;;;11.30;11.00;;;24.70;95.50;;;;;;3568209;40;20454;-57
2021/07/28 11:03:35;;;;;;;10.97;10.67;;;24.70;95.50;;;;;;3570922;40;20461;-58
2021/07/28 11:06:29;;;;;;;11.37;10.97;;;24.70;95.50;;;;;;3570256;40;20458;-57
2021/07/28 11:09:18;;;;;;;10.43;10.13;;;24.70;95.50;;;;;;3568057;40;20475;-57
2021/07/28 11:11:50;;;;;;;11.33;10.97;;;24.70;95.50;;;;;;3568757;40;20477;-58
2021/07/28 11:14:17;;;;;;;10.50;10.20;;;24.70;95.50;;;;;;3570344;40;20937;-57
2021/07/28 11:16:53;;;;;;;10.33;10.03;;;24.70;95.50;;;;;;3567429;40;21010;-59
2021/07/28 11:19:23;;;;;;;10.30;10.00;;;24.70;95.50;;;;;;3568966;40;20516;-58
2021/07/28 11:21:50;;;;;;;10.13;9.83;;;24.70;95.50;;;;;;3570790;40;20887;-59
2021/07/28 11:24:18;;;;;;;10.60;10.30;;;24.70;95.50;;;;;;3568874;40;20467;-58
2021/07/28 11:26:48;;;;;;;10.67;10.37;;;24.70;95.50;;;;;;3561006;40;20484;-59
2021/07/28 11:29:17;;;;;;;11.27;10.87;;;24.70;95.50;;;;;;3558467;40;20455;-58
2021/07/28 11:31:46;;;;;;;10.63;10.33;;;24.70;95.50;;;;;;3559083;40;20503;-59
2021/07/28 11:34:20;;;;;;;10.97;10.57;;;24.70;95.50;;;;;;3559565;40;20481;-59
2021/07/28 11:36:56;;;;;;;11.30;11.00;;;24.70;95.50;;;;;;3559920;40;20466;-58
2021/07/28 11:39:24;;;;;;;11.53;11.13;;;24.70;95.50;;;;;;3558471;40;20568;-59
2021/07/28 11:42:01;;;;;;;11.10;10.80;;;24.70;95.50;;;;;;3560044;40;20549;-59
2021/07/28 11:44:28;;;;;;;11.53;11.13;;;24.70;95.50;;;;;;3561648;40;20457;-59
2021/07/28 11:46:56;;;;;;;11.70;11.30;;;24.70;95.50;;;;;;3561055;40;20435;-58
2021/07/28 11:49:28;;;;;;;11.60;11.20;;;24.70;95.50;;;;;;3559421;40;20462;-58
2021/07/28 11:51:59;;;;;;;11.07;10.77;;;24.70;95.80;;;;;;3563014;40;20521;-58
2021/07/28 11:54:29;;;;;;;11.13;10.83;;;24.70;95.50;;;;;;3559589;40;20515;-59
2021/07/28 11:56:56;;;;;;;10.97;10.67;;;24.70;95.80;;;;;;3557757;40;20548;-58
2021/07/28 11:59:25;;;;;;;11.00;10.70;;;24.70;95.50;;;;;;3561038;40;20859;-58
2021/07/28 12:01:54;;;;;;;11.43;11.03;;;24.70;95.50;;;;;;3560741;40;20541;-59
2021/07/28 12:04:23;;;;;;;10.70;10.40;;;24.70;95.50;;;;;;3558392;40;20466;-58
2021/07/28 12:06:53;;;;;;;11.17;10.77;;;24.70;95.50;;;;;;3561204;40;20502;-59
2021/07/28 12:09:23;;;;;;;11.10;10.70;;;24.70;95.50;;;;;;3559638;40;20479;-59
2021/07/28 12:11:59;;;;;;;10.77;10.47;;;24.70;95.50;;;;;;3566157;40;20511;-58
2021/07/28 12:14:35;;;;;;;10.50;10.20;;;24.70;95.50;;;;;;3559840;40;20471;-58
2021/07/28 12:17:05;;;;;;;10.37;10.07;;;24.70;95.50;;;;;;3562936;40;20821;-58
2021/07/28 12:19:35;;;;;;;9.93;9.63;;;24.70;95.50;;;;;;3570033;40;20450;-59
2021/07/28 12:22:09;;;;;;;10.30;10.00;;;24.70;95.50;;;;;;3569888;40;20493;-59
2021/07/28 12:24:42;;;;;;;10.90;10.60;;;24.70;95.50;;;;;;3570273;40;20473;-58
2021/07/28 12:27:37;;;;;;;10.50;10.20;;;24.70;95.50;;;;;;3570563;40;20454;-58
2021/07/28 12:30:07;;;;;;;10.60;10.30;;;24.70;95.50;;;;;;3557271;40;20522;-58
2021/07/28 12:32:36;;;;;;;11.07;10.67;;;24.70;95.80;;;;;;3567646;40;20513;-58
2021/07/28 12:35:05;;;;;;;9.33;9.03;;;24.70;95.50;;;;;;3564449;40;20823;-59
2021/07/28 12:37:34;;;;;;;10.30;10.00;;;24.70;95.50;;;;;;3564214;40;20826;-58
2021/07/28 12:40:01;;;;;;;10.00;9.70;;;24.70;95.50;;;;;;3565221;40;20545;-57
2021/07/28 12:42:29;;;;;;;10.43;10.13;;;24.70;95.50;;;;;;3558263;40;20466;-59
2021/07/28 12:44:56;;;;;;;9.73;9.43;;;24.70;95.50;;;;;;3565173;40;20715;-59
2021/07/28 12:47:23;;;;;;;10.37;10.07;;;24.70;95.50;;;;;;3565987;40;20475;-58
2021/07/28 12:49:51;;;;;;;9.80;9.50;;;24.70;95.50;;;;;;3567387;40;20700;-59
2021/07/28 12:52:18;;;;;;;10.10;9.80;;;24.70;95.50;;;;;;3564127;40;20458;-59